Time;durP1;ratioP1;P1;durP2;ratioP2;P2;SDS_P1;SDS_P2;PMS_P1;PMS_P2;Temp;Humidity;BMP_temperature;BMP_pressure;BME280_temperature;BME280_humidity;BME280_pressure;Samples;Min_cycle;Max_cycle;Signal;HPM_P1;HPM_P2
2022/11/28 00:01:09;;;;;;;17.73;2.93;;;21.10;71.70;;;;;;5051134;28;20188;-73
2022/11/28 00:03:36;;;;;;;15.73;2.83;;;21.20;71.40;;;;;;5046940;28;20266;-73
2022/11/28 00:06:05;;;;;;;16.80;2.70;;;21.30;71.90;;;;;;5038400;28;20181;-73
2022/11/28 00:08:33;;;;;;;12.80;2.83;;;21.50;71.30;;;;;;5035144;28;20584;-72
2022/11/28 00:11:06;;;;;;;10.87;2.90;;;21.80;70.00;;;;;;5040385;28;20172;-72
2022/11/28 00:13:33;;;;;;;9.77;2.83;;;21.90;69.00;;;;;;5045343;28;20689;-72
2022/11/28 00:16:03;;;;;;;11.17;2.40;;;22.30;69.10;;;;;;5046487;28;20180;-74
2022/11/28 00:18:31;;;;;;;11.07;2.60;;;22.10;68.90;;;;;;5048716;28;20175;-72
2022/11/28 00:21:07;;;;;;;16.77;3.40;;;22.40;68.70;;;;;;5048096;28;20208;-73
2022/11/28 00:23:35;;;;;;;15.07;2.67;;;22.80;67.10;;;;;;5047853;28;20195;-72
2022/11/28 00:26:06;;;;;;;15.50;2.27;;;22.70;66.90;;;;;;5045020;28;20190;-70
2022/11/28 00:28:33;;;;;;;12.73;3.00;;;22.40;67.30;;;;;;5041066;28;20191;-72
2022/11/28 00:31:01;;;;;;;12.47;3.00;;;22.10;68.00;;;;;;5051853;28;20584;-72
2022/11/28 00:33:28;;;;;;;10.10;2.30;;;22.20;69.30;;;;;;5052113;28;20191;-72
2022/11/28 00:36:01;;;;;;;26.70;3.60;;;22.80;67.40;;;;;;5052646;28;20176;-72
2022/11/28 00:38:28;;;;;;;11.80;2.87;;;23.30;66.40;;;;;;5034263;28;20187;-73
2022/11/28 00:41:04;;;;;;;11.03;2.63;;;23.50;63.00;;;;;;5034457;28;20220;-73
2022/11/28 00:43:32;;;;;;;11.00;2.33;;;23.50;62.60;;;;;;5040751;28;20179;-73
2022/11/28 00:45:59;;;;;;;19.63;2.87;;;23.70;62.60;;;;;;5051871;28;20218;-72
2022/11/28 00:48:27;;;;;;;12.50;2.63;;;23.50;64.20;;;;;;5053403;28;20310;-71
2022/11/28 00:51:04;;;;;;;14.13;2.67;;;23.10;66.20;;;;;;5052959;28;20203;-72
2022/11/28 00:53:31;;;;;;;11.43;2.77;;;23.10;66.00;;;;;;5050070;28;20586;-72
2022/11/28 00:55:59;;;;;;;15.70;2.93;;;22.90;67.20;;;;;;5051203;28;20198;-73
2022/11/28 00:58:26;;;;;;;11.37;2.83;;;23.20;66.30;;;;;;5037420;28;20183;-72
2022/11/28 01:00:53;;;;;;;15.23;2.73;;;23.40;66.70;;;;;;5037914;28;20659;-72
2022/11/28 01:03:21;;;;;;;9.80;2.90;;;23.40;66.00;;;;;;5037861;28;20659;-73
2022/11/28 01:05:48;;;;;;;9.27;2.63;;;23.80;63.40;;;;;;5048685;28;20180;-70
2022/11/28 01:08:16;;;;;;;18.63;3.50;;;23.80;64.00;;;;;;5050610;28;20251;-72
2022/11/28 01:10:45;;;;;;;13.20;2.83;;;23.70;64.50;;;;;;5048017;28;20227;-72
2022/11/28 01:13:12;;;;;;;11.43;2.70;;;23.60;64.70;;;;;;5049109;28;20246;-71
2022/11/28 01:15:41;;;;;;;18.00;2.90;;;23.20;66.30;;;;;;5051629;28;20188;-72
2022/11/28 01:18:09;;;;;;;10.30;2.47;;;23.00;65.80;;;;;;5045824;28;20282;-73
2022/11/28 01:20:37;;;;;;;11.47;2.47;;;23.20;66.30;;;;;;5046217;28;20709;-72
2022/11/28 01:23:05;;;;;;;15.43;3.40;;;23.30;64.70;;;;;;5050227;28;20548;-72
2022/11/28 01:25:32;;;;;;;12.20;2.40;;;23.30;64.70;;;;;;5047132;28;20200;-72
2022/11/28 01:28:00;;;;;;;10.20;2.60;;;23.50;63.80;;;;;;5049480;28;20241;-72
2022/11/28 01:30:27;;;;;;;11.07;2.60;;;23.30;64.40;;;;;;5050619;28;20243;-72
2022/11/28 01:32:55;;;;;;;16.83;3.40;;;23.30;64.30;;;;;;5049529;28;20190;-73
2022/11/28 01:35:22;;;;;;;13.63;2.80;;;23.10;64.80;;;;;;5052447;28;20190;-72
2022/11/28 01:37:50;;;;;;;11.23;2.43;;;23.10;66.30;;;;;;5048274;28;20191;-72
2022/11/28 01:40:17;;;;;;;13.03;2.63;;;23.10;65.40;;;;;;5051306;28;20247;-73
2022/11/28 01:42:45;;;;;;;15.90;2.70;;;23.80;63.80;;;;;;5045595;28;20184;-72
2022/11/28 01:45:25;;;;;;;14.13;2.97;;;24.30;62.40;;;;;;5051145;28;20706;-72
2022/11/28 01:47:56;;;;;;;17.53;3.10;;;24.60;62.10;;;;;;5049378;28;20254;-72
2022/11/28 01:50:24;;;;;;;12.70;2.60;;;24.70;60.30;;;;;;5044507;28;20180;-71
2022/11/28 01:52:55;;;;;;;12.07;2.83;;;24.10;61.60;;;;;;5047115;28;20200;-73
2022/11/28 01:55:27;;;;;;;9.87;2.77;;;24.00;62.20;;;;;;5050721;28;20262;-72
2022/11/28 01:57:55;;;;;;;11.17;2.53;;;24.10;62.90;;;;;;5048847;28;20176;-73
2022/11/28 02:00:23;;;;;;;16.03;2.93;;;24.00;61.60;;;;;;5047453;28;20701;-72
2022/11/28 02:02:53;;;;;;;10.27;2.37;;;23.90;61.80;;;;;;5043759;28;20184;-72
2022/11/28 02:05:22;;;;;;;14.37;3.07;;;23.90;62.50;;;;;;5044540;28;20176;-72
2022/11/28 02:07:51;;;;;;;12.53;3.17;;;23.90;62.20;;;;;;5051221;28;20188;-72
2022/11/28 02:10:22;;;;;;;12.63;2.60;;;23.90;63.10;;;;;;5051223;28;20195;-73
2022/11/28 02:13:11;;;;;;;12.07;2.63;;;24.00;62.20;;;;;;5051079;28;20236;-72
2022/11/28 02:15:51;;;;;;;12.53;3.00;;;23.90;62.70;;;;;;5048259;28;20222;-72
2022/11/28 02:19:05;;;;;;;10.87;2.50;;;23.80;62.50;;;;;;5046718;28;20267;-72
2022/11/28 02:21:49;;;;;;;17.47;2.80;;;23.20;63.60;;;;;;5045324;28;20211;-72
2022/11/28 02:24:17;;;;;;;12.97;2.77;;;22.80;65.20;;;;;;5050309;28;20180;-72
2022/11/28 02:27:08;;;;;;;14.60;2.90;;;23.80;64.00;;;;;;5050469;28;20259;-73
2022/11/28 02:30:05;;;;;;;11.43;2.60;;;24.70;60.00;;;;;;5044384;28;20172;-73
2022/11/28 02:32:39;;;;;;;7.70;1.93;;;25.00;59.70;;;;;;5044551;28;20262;-73
2022/11/28 02:35:19;;;;;;;16.47;3.17;;;24.70;59.90;;;;;;5046254;28;20507;-73
2022/11/28 02:38:20;;;;;;;15.83;3.20;;;24.70;59.50;;;;;;5048022;28;20258;-73
2022/11/28 02:40:59;;;;;;;8.43;2.73;;;24.50;60.60;;;;;;5049394;28;20297;-71
2022/11/28 02:43:40;;;;;;;11.27;2.77;;;24.50;60.70;;;;;;5045405;28;20665;-72
2022/11/28 02:46:16;;;;;;;14.10;2.73;;;24.50;60.40;;;;;;5044295;28;20186;-73
2022/11/28 02:48:51;;;;;;;13.87;2.87;;;24.40;59.70;;;;;;5047083;28;20195;-72
2022/11/28 02:51:52;;;;;;;13.70;2.80;;;24.00;61.00;;;;;;5050102;28;20175;-72
2022/11/28 02:54:22;;;;;;;10.77;2.67;;;23.60;61.90;;;;;;5044940;28;20524;-72
2022/11/28 02:56:54;;;;;;;14.57;3.10;;;23.80;61.50;;;;;;5039695;28;20184;-72
2022/11/28 02:59:37;;;;;;;10.83;2.40;;;24.00;61.50;;;;;;5045977;28;20206;-72
2022/11/28 03:02:20;;;;;;;9.93;2.03;;;23.40;63.30;;;;;;5041363;28;20192;-72
2022/11/28 03:05:05;;;;;;;11.30;2.50;;;23.50;62.60;;;;;;5046635;28;20187;-72
2022/11/28 03:07:52;;;;;;;11.53;2.77;;;23.40;62.90;;;;;;5041169;28;20184;-73
2022/11/28 03:10:29;;;;;;;12.53;2.67;;;23.60;62.20;;;;;;5041140;28;20184;-73
2022/11/28 03:13:09;;;;;;;18.27;2.87;;;23.90;62.20;;;;;;5050939;28;20202;-70
2022/11/28 03:16:02;;;;;;;12.47;3.17;;;24.80;59.40;;;;;;5049529;28;20653;-72
2022/11/28 03:18:55;;;;;;;11.33;3.07;;;25.00;58.20;;;;;;5040600;28;20584;-75
2022/11/28 03:21:32;;;;;;;13.57;2.80;;;25.70;56.50;;;;;;5040360;28;20210;-73
2022/11/28 03:24:19;;;;;;;10.63;2.20;;;25.60;56.70;;;;;;5048693;28;20190;-74
2022/11/28 03:26:55;;;;;;;17.40;2.90;;;25.90;55.30;;;;;;5050134;28;20180;-73
2022/11/28 03:29:41;;;;;;;8.83;2.33;;;25.70;56.00;;;;;;5049083;28;20211;-73
2022/11/28 03:32:16;;;;;;;13.83;2.27;;;24.60;57.70;;;;;;5045223;28;20246;-73
2022/11/28 03:34:48;;;;;;;11.93;2.37;;;24.20;58.80;;;;;;5053090;28;20176;-73
2022/11/28 03:37:26;;;;;;;11.37;2.57;;;24.30;59.40;;;;;;5050010;28;20184;-74
2022/11/28 03:40:03;;;;;;;11.20;2.70;;;25.20;56.40;;;;;;5044884;28;20223;-71
2022/11/28 03:42:36;;;;;;;8.63;2.43;;;25.60;55.20;;;;;;5050889;28;20176;-72
2022/11/28 03:45:13;;;;;;;15.13;2.83;;;25.40;54.60;;;;;;5051634;28;20176;-72
2022/11/28 03:47:46;;;;;;;14.90;3.57;;;24.50;58.30;;;;;;5048772;28;20227;-71
2022/11/28 03:50:21;;;;;;;16.60;3.03;;;24.10;59.70;;;;;;5047283;28;20188;-71
2022/11/28 03:53:08;;;;;;;12.97;2.67;;;23.90;60.10;;;;;;5054304;28;20207;-72
2022/11/28 03:55:42;;;;;;;12.57;3.03;;;23.70;61.40;;;;;;5053637;28;20245;-71
2022/11/28 03:58:39;;;;;;;12.97;2.60;;;23.60;60.30;;;;;;5047969;28;20195;-71
2022/11/28 04:01:15;;;;;;;14.63;3.10;;;24.10;60.50;;;;;;5048561;28;20207;-71
2022/11/28 04:04:12;;;;;;;11.87;2.60;;;25.00;57.30;;;;;;5047619;28;20264;-72
2022/11/28 04:06:53;;;;;;;9.60;2.27;;;25.10;56.60;;;;;;5052421;28;20665;-70
2022/11/28 04:10:18;;;;;;;10.63;2.57;;;25.30;55.50;;;;;;5053324;28;20195;-71
2022/11/28 04:12:58;;;;;;;7.60;2.27;;;24.80;55.90;;;;;;5048504;28;20199;-69
2022/11/28 04:15:41;;;;;;;11.60;2.53;;;24.10;58.20;;;;;;5055155;28;20191;-70
2022/11/28 04:18:20;;;;;;;11.83;2.50;;;23.80;59.00;;;;;;5044113;28;20654;-69
2022/11/28 04:21:22;;;;;;;8.67;2.50;;;24.10;59.40;;;;;;5047128;28;20211;-69
2022/11/28 04:23:54;;;;;;;13.53;2.70;;;24.60;57.50;;;;;;5048651;28;20273;-72
2022/11/28 04:26:31;;;;;;;10.50;2.40;;;25.20;55.80;;;;;;5047177;28;20180;-71
2022/11/28 04:29:00;;;;;;;12.90;2.50;;;25.70;55.40;;;;;;5049136;28;20175;-72
2022/11/28 04:31:29;;;;;;;13.63;2.63;;;26.60;52.80;;;;;;5041748;28;20169;-72
2022/11/28 04:34:03;;;;;;;9.43;2.10;;;26.20;52.60;;;;;;5041697;28;20184;-72
2022/11/28 04:36:32;;;;;;;8.97;2.00;;;26.40;53.40;;;;;;5043105;28;20264;-71
2022/11/28 04:39:01;;;;;;;9.37;2.03;;;26.20;53.10;;;;;;5049951;28;20189;-72
2022/11/28 04:41:38;;;;;;;11.33;2.27;;;26.00;52.60;;;;;;5048647;28;20180;-72
2022/11/28 04:44:18;;;;;;;12.30;2.40;;;25.40;54.50;;;;;;5045145;28;20207;-70
2022/11/28 04:46:51;;;;;;;15.80;3.77;;;25.20;53.80;;;;;;5049017;28;20238;-70
2022/11/28 04:49:19;;;;;;;13.53;3.43;;;24.50;56.00;;;;;;5043164;28;20264;-71
2022/11/28 04:52:08;;;;;;;10.93;2.90;;;24.50;57.60;;;;;;5044775;28;20634;-71
2022/11/28 04:54:52;;;;;;;10.67;2.10;;;24.40;56.50;;;;;;5047832;28;20535;-72
2022/11/28 04:57:32;;;;;;;10.87;2.30;;;25.40;54.20;;;;;;5045801;28;20184;-71
2022/11/28 05:00:04;;;;;;;10.53;2.10;;;26.20;52.80;;;;;;5048004;28;20218;-72
2022/11/28 05:02:33;;;;;;;8.07;2.17;;;26.40;51.70;;;;;;5045756;28;20177;-71
2022/11/28 05:05:00;;;;;;;8.87;2.47;;;26.20;52.80;;;;;;5041883;28;20188;-72
2022/11/28 05:07:28;;;;;;;9.20;2.50;;;27.20;50.40;;;;;;5046712;28;20226;-71
2022/11/28 05:09:56;;;;;;;8.33;2.50;;;28.40;47.30;;;;;;5042523;28;20183;-71
2022/11/28 05:12:23;;;;;;;7.97;2.00;;;28.60;46.00;;;;;;5048029;28;20183;-70
2022/11/28 05:14:51;;;;;;;7.47;1.90;;;27.60;48.30;;;;;;5048746;28;20289;-73
2022/11/28 05:17:18;;;;;;;9.33;1.67;;;28.10;47.10;;;;;;5073079;28;20537;-73
2022/11/28 05:19:46;;;;;;;10.13;2.20;;;27.80;47.90;;;;;;5049745;28;20223;-70
2022/11/28 05:22:13;;;;;;;7.87;2.30;;;27.80;46.10;;;;;;5044968;28;20213;-72
2022/11/28 05:24:41;;;;;;;7.93;2.30;;;27.50;48.00;;;;;;5044461;28;20685;-73
2022/11/28 05:27:10;;;;;;;9.03;1.70;;;27.30;47.90;;;;;;5046752;28;20172;-71
2022/11/28 05:29:42;;;;;;;8.07;2.07;;;27.50;47.70;;;;;;5050913;28;20191;-71
2022/11/28 05:32:10;;;;;;;12.47;2.40;;;27.20;48.00;;;;;;5048547;28;20644;-73
2022/11/28 05:34:37;;;;;;;8.60;1.93;;;27.90;47.00;;;;;;5045158;28;20191;-71
2022/11/28 05:37:05;;;;;;;14.37;2.87;;;28.50;46.00;;;;;;5045337;28;20191;-71
2022/11/28 05:39:33;;;;;;;10.67;1.93;;;28.20;45.50;;;;;;5047762;28;20200;-72
2022/11/28 05:42:00;;;;;;;6.70;2.37;;;26.60;49.30;;;;;;5045369;28;20215;-71
2022/11/28 05:44:27;;;;;;;10.10;2.57;;;26.60;49.40;;;;;;5048817;28;20184;-71
2022/11/28 05:46:55;;;;;;;12.90;2.20;;;27.20;48.40;;;;;;5049867;28;20223;-71
2022/11/28 05:49:24;;;;;;;7.13;2.30;;;26.20;50.90;;;;;;5046713;28;20181;-71
2022/11/28 05:51:51;;;;;;;10.20;2.70;;;25.80;52.50;;;;;;5047624;28;20337;-72
2022/11/28 05:54:19;;;;;;;11.37;2.50;;;26.00;52.00;;;;;;5051561;28;20195;-72
2022/11/28 05:56:46;;;;;;;10.77;2.10;;;26.40;50.50;;;;;;5049911;28;20188;-71
2022/11/28 05:59:14;;;;;;;9.40;2.20;;;26.50;50.00;;;;;;5045913;28;20220;-70
2022/11/28 06:01:41;;;;;;;7.77;2.07;;;27.10;49.40;;;;;;5045993;28;20200;-72
2022/11/28 06:04:09;;;;;;;9.43;2.20;;;26.20;50.80;;;;;;5048516;28;20192;-70
2022/11/28 06:06:37;;;;;;;11.77;2.10;;;25.90;51.90;;;;;;5044277;28;20200;-72
2022/11/28 06:09:05;;;;;;;10.67;2.30;;;26.10;51.90;;;;;;5046616;28;20197;-70
2022/11/28 06:11:33;;;;;;;7.53;2.20;;;26.00;52.40;;;;;;5047230;28;20266;-70
2022/11/28 06:14:02;;;;;;;9.17;2.40;;;25.60;52.90;;;;;;5045845;28;20190;-68
2022/11/28 06:16:30;;;;;;;11.33;2.30;;;25.70;53.20;;;;;;5041382;28;20192;-68
2022/11/28 06:19:01;;;;;;;11.73;2.70;;;26.20;51.90;;;;;;5042946;28;20172;-69
2022/11/28 06:21:30;;;;;;;9.07;2.13;;;25.80;52.60;;;;;;5046543;28;20188;-72
2022/11/28 06:23:58;;;;;;;8.87;2.33;;;26.00;52.40;;;;;;5044115;28;20199;-69
2022/11/28 06:26:27;;;;;;;12.80;2.63;;;26.30;51.50;;;;;;5048381;28;20188;-71
2022/11/28 06:28:54;;;;;;;10.50;2.40;;;26.80;51.10;;;;;;5048365;28;20191;-72
2022/11/28 06:31:26;;;;;;;7.90;2.40;;;27.90;47.90;;;;;;5045486;28;20207;-71
2022/11/28 06:33:54;;;;;;;11.50;2.50;;;26.60;50.50;;;;;;5043772;28;20563;-71
2022/11/28 06:36:21;;;;;;;9.87;1.93;;;25.50;53.90;;;;;;5047379;28;20179;-70
2022/11/28 06:38:49;;;;;;;12.27;2.20;;;25.80;53.20;;;;;;5045208;28;20280;-71
2022/11/28 06:41:18;;;;;;;11.07;2.30;;;25.40;53.40;;;;;;5046352;28;20219;-72
2022/11/28 06:43:46;;;;;;;12.60;2.70;;;24.90;55.30;;;;;;5046666;28;20208;-70
2022/11/28 06:46:15;;;;;;;8.70;2.80;;;24.50;56.20;;;;;;5047537;28;20184;-70
2022/11/28 06:48:43;;;;;;;8.53;2.60;;;24.40;56.40;;;;;;5043495;28;20196;-69
2022/11/28 06:51:12;;;;;;;9.57;2.13;;;24.70;54.90;;;;;;5049227;28;20176;-70
2022/11/28 06:53:39;;;;;;;9.23;2.50;;;24.30;55.50;;;;;;5046980;28;20175;-70
2022/11/28 06:56:13;;;;;;;9.27;2.07;;;23.70;58.30;;;;;;5047774;28;20183;-70
2022/11/28 06:58:41;;;;;;;13.73;2.57;;;24.30;55.40;;;;;;5049360;28;20180;-70
2022/11/28 07:01:20;;;;;;;6.50;1.90;;;25.00;54.00;;;;;;5045370;28;20215;-71
2022/11/28 07:03:48;;;;;;;13.63;2.60;;;25.20;53.00;;;;;;5047225;28;20196;-70
2022/11/28 07:06:18;;;;;;;8.77;2.20;;;25.00;53.70;;;;;;5044184;28;20191;-71
2022/11/28 07:08:46;;;;;;;7.13;2.30;;;25.50;52.70;;;;;;5049936;28;20196;-70
2022/11/28 07:11:18;;;;;;;6.50;2.30;;;24.90;53.80;;;;;;5048806;28;20193;-70
2022/11/28 07:13:47;;;;;;;8.13;2.07;;;24.50;55.10;;;;;;5052456;28;20596;-71
2022/11/28 07:16:19;;;;;;;9.53;2.30;;;23.80;57.30;;;;;;5050879;28;20272;-70
2022/11/28 07:18:47;;;;;;;6.37;2.10;;;23.60;58.00;;;;;;5051218;28;20180;-72
2022/11/28 07:21:15;;;;;;;12.27;2.87;;;23.40;59.10;;;;;;5049669;28;20220;-73
2022/11/28 07:23:44;;;;;;;10.00;2.57;;;23.10;59.80;;;;;;5048231;28;20184;-71
2022/11/28 07:26:14;;;;;;;7.77;2.23;;;22.30;61.60;;;;;;5051552;28;20676;-71
2022/11/28 07:28:42;;;;;;;13.70;2.73;;;22.20;61.90;;;;;;5083433;28;20184;-71
2022/11/28 07:31:12;;;;;;;9.47;2.60;;;22.20;62.00;;;;;;5053737;28;20188;-72
2022/11/28 07:33:41;;;;;;;10.37;2.13;;;22.00;62.80;;;;;;5052922;28;20207;-74
2022/11/28 07:36:15;;;;;;;9.30;2.73;;;21.80;63.70;;;;;;5055100;28;20175;-72
2022/11/28 07:38:46;;;;;;;8.83;2.10;;;21.70;64.00;;;;;;5050976;28;20274;-72
2022/11/28 07:41:14;;;;;;;8.33;2.50;;;21.60;64.50;;;;;;5048985;28;20350;-72
2022/11/28 07:43:43;;;;;;;10.80;2.47;;;21.60;64.50;;;;;;5053837;28;20184;-72
2022/11/28 07:46:13;;;;;;;8.67;2.13;;;21.70;64.90;;;;;;5051277;28;20188;-72
2022/11/28 07:48:41;;;;;;;8.43;2.27;;;21.80;64.30;;;;;;5048074;28;20230;-72
2022/11/28 07:51:21;;;;;;;8.43;2.00;;;21.50;64.50;;;;;;5053165;28;20168;-71
2022/11/28 07:53:48;;;;;;;11.90;2.80;;;21.30;65.80;;;;;;5049538;28;20206;-73
2022/11/28 07:56:20;;;;;;;10.63;2.47;;;21.30;65.40;;;;;;5079966;28;20240;-71
2022/11/28 07:58:48;;;;;;;10.43;2.43;;;20.90;66.70;;;;;;5054825;28;20283;-73
2022/11/28 08:01:18;;;;;;;11.40;2.30;;;21.00;66.70;;;;;;5052159;28;20590;-73
2022/11/28 08:03:47;;;;;;;11.83;1.93;;;21.10;67.20;;;;;;5053004;28;20318;-72
2022/11/28 08:06:15;;;;;;;11.73;2.20;;;20.90;67.00;;;;;;5053819;28;20219;-72
2022/11/28 08:08:45;;;;;;;7.90;2.40;;;20.90;67.30;;;;;;5054278;28;21848;-70
2022/11/28 08:11:14;;;;;;;15.37;2.40;;;20.80;67.70;;;;;;5052537;28;20179;-70
2022/11/28 08:13:41;;;;;;;8.73;2.40;;;20.80;67.30;;;;;;5054811;28;20234;-71
2022/11/28 08:16:15;;;;;;;8.70;2.53;;;20.70;67.80;;;;;;5051281;28;20171;-71
2022/11/28 08:18:42;;;;;;;9.63;2.40;;;20.80;67.90;;;;;;5040942;28;20185;-72
2022/11/28 08:21:19;;;;;;;10.30;2.70;;;20.80;67.70;;;;;;5034142;28;20318;-71
2022/11/28 08:23:46;;;;;;;6.77;2.43;;;20.70;67.40;;;;;;5033718;28;20184;-71
2022/11/28 08:26:16;;;;;;;8.63;1.97;;;20.70;68.10;;;;;;5034028;28;20195;-72
2022/11/28 08:28:43;;;;;;;10.30;2.03;;;20.40;68.10;;;;;;5050021;28;20172;-72
2022/11/28 08:31:19;;;;;;;10.57;2.50;;;20.30;69.20;;;;;;5050440;28;20211;-71
2022/11/28 08:33:48;;;;;;;9.73;2.20;;;20.30;69.60;;;;;;5043344;28;20577;-73
2022/11/28 08:36:18;;;;;;;10.53;2.67;;;20.10;70.40;;;;;;5052673;28;20662;-71
2022/11/28 08:38:46;;;;;;;9.23;2.10;;;20.00;70.70;;;;;;5034715;28;20238;-71
2022/11/28 08:41:17;;;;;;;10.17;2.10;;;20.00;70.90;;;;;;5034351;28;20258;-71
2022/11/28 08:43:45;;;;;;;9.23;2.57;;;20.00;70.80;;;;;;5046186;28;20180;-71
2022/11/28 08:46:19;;;;;;;8.87;2.23;;;20.00;71.00;;;;;;5047845;28;20187;-71
2022/11/28 08:48:47;;;;;;;14.27;3.03;;;19.90;71.60;;;;;;5035177;28;20643;-71
2022/11/28 08:51:17;;;;;;;14.77;2.77;;;19.90;71.50;;;;;;5041330;28;20255;-70
2022/11/28 08:53:45;;;;;;;15.20;2.63;;;19.80;72.30;;;;;;5034047;28;20177;-72
2022/11/28 08:56:12;;;;;;;10.37;2.67;;;19.80;72.20;;;;;;5037022;28;20194;-71
2022/11/28 08:58:40;;;;;;;11.83;2.87;;;19.80;72.30;;;;;;5039437;28;20643;-71
2022/11/28 09:01:19;;;;;;;18.13;2.77;;;19.80;72.60;;;;;;5034073;28;20231;-71
2022/11/28 09:03:47;;;;;;;8.00;2.70;;;19.80;73.00;;;;;;5045492;28;20176;-71
2022/11/28 09:06:15;;;;;;;13.33;2.97;;;19.80;73.30;;;;;;5046628;28;20183;-71
2022/11/28 09:08:43;;;;;;;12.20;2.70;;;19.70;73.10;;;;;;5047149;28;20168;-71
2022/11/28 09:11:12;;;;;;;10.87;3.17;;;19.80;73.30;;;;;;5044924;28;20250;-71
2022/11/28 09:13:40;;;;;;;9.67;2.50;;;19.80;73.40;;;;;;5043816;28;20186;-71
2022/11/28 09:16:07;;;;;;;8.90;2.40;;;19.80;73.50;;;;;;5039135;28;20177;-70
2022/11/28 09:18:35;;;;;;;9.43;2.37;;;19.80;73.90;;;;;;5045394;28;20246;-70
2022/11/28 09:21:09;;;;;;;12.97;2.43;;;19.80;73.90;;;;;;5047858;28;20689;-72
2022/11/28 09:23:37;;;;;;;12.67;3.23;;;19.70;74.00;;;;;;5050929;28;20245;-71
2022/11/28 09:26:09;;;;;;;10.03;1.93;;;19.80;74.30;;;;;;5047652;28;20176;-71
2022/11/28 09:28:37;;;;;;;15.50;2.73;;;19.80;74.40;;;;;;5046085;28;20275;-71
2022/11/28 09:31:05;;;;;;;10.80;2.70;;;19.80;73.90;;;;;;5037072;28;20664;-71
2022/11/28 09:33:33;;;;;;;10.77;2.70;;;19.80;74.10;;;;;;5042970;28;20699;-70
2022/11/28 09:36:08;;;;;;;11.90;2.57;;;19.80;74.20;;;;;;5040888;28;20262;-71
2022/11/28 09:38:36;;;;;;;11.37;2.70;;;19.80;74.20;;;;;;5040525;28;20250;-72
2022/11/28 09:41:23;;;;;;;7.53;2.40;;;19.70;73.80;;;;;;5032454;28;20558;-72
2022/11/28 09:43:51;;;;;;;12.83;2.80;;;19.70;74.00;;;;;;5033852;28;20177;-71
2022/11/28 09:46:28;;;;;;;7.27;2.27;;;19.60;74.30;;;;;;5038659;28;20278;-72
2022/11/28 09:48:59;;;;;;;11.10;2.10;;;19.60;74.50;;;;;;5033087;28;20188;-71
2022/11/28 09:51:56;;;;;;;8.93;2.40;;;19.60;74.50;;;;;;5033730;28;20659;-71
2022/11/28 09:54:42;;;;;;;8.00;2.10;;;19.60;74.20;;;;;;5036116;28;20323;-72
2022/11/28 09:57:36;;;;;;;13.90;2.70;;;19.60;74.60;;;;;;5033935;28;20647;-72
2022/11/28 10:00:05;;;;;;;16.73;2.93;;;19.70;74.60;;;;;;5034556;28;20700;-72
2022/11/28 10:02:48;;;;;;;18.60;2.90;;;19.70;74.50;;;;;;5042556;28;20184;-71
2022/11/28 10:05:32;;;;;;;10.57;2.57;;;19.60;74.60;;;;;;5039739;28;20324;-74
2022/11/28 10:08:23;;;;;;;8.60;2.70;;;19.60;74.60;;;;;;5040533;28;20183;-71
2022/11/28 10:11:25;;;;;;;15.40;2.67;;;19.70;74.70;;;;;;5032576;28;20237;-70
2022/11/28 10:14:06;;;;;;;12.00;2.80;;;19.60;74.60;;;;;;5043287;28;20182;-71
2022/11/28 10:17:00;;;;;;;11.77;2.50;;;19.70;74.70;;;;;;5036896;28;20200;-71
2022/11/28 10:19:46;;;;;;;13.83;2.73;;;19.70;75.00;;;;;;5035517;28;20215;-71
2022/11/28 10:22:19;;;;;;;9.20;2.13;;;19.80;74.90;;;;;;5041835;28;20184;-71
2022/11/28 10:24:54;;;;;;;10.37;2.37;;;19.80;75.40;;;;;;5045176;28;20233;-70
2022/11/28 10:27:33;;;;;;;13.23;2.70;;;19.80;75.20;;;;;;5047575;28;20735;-72
2022/11/28 10:30:09;;;;;;;15.20;2.83;;;19.90;74.70;;;;;;5040642;28;20199;-71
2022/11/28 10:32:46;;;;;;;11.77;2.63;;;19.80;74.90;;;;;;5037899;28;20187;-71
2022/11/28 10:35:23;;;;;;;10.80;2.67;;;19.70;74.90;;;;;;5040881;28;20678;-70
2022/11/28 10:37:51;;;;;;;11.50;2.60;;;19.60;75.50;;;;;;5036263;28;20203;-70
2022/11/28 10:40:47;;;;;;;9.27;2.50;;;19.60;75.70;;;;;;5038784;28;20218;-72
2022/11/28 10:43:42;;;;;;;10.90;3.10;;;19.50;76.00;;;;;;5034500;28;20180;-71
2022/11/28 10:46:13;;;;;;;12.00;2.50;;;19.60;76.50;;;;;;5042391;28;20333;-71
2022/11/28 10:48:57;;;;;;;13.23;2.70;;;19.50;76.30;;;;;;5068829;28;20195;-71
2022/11/28 10:51:49;;;;;;;11.10;2.43;;;19.50;76.40;;;;;;5049004;28;20182;-71
2022/11/28 10:54:34;;;;;;;11.00;2.53;;;19.50;76.50;;;;;;5040340;28;20196;-72
2022/11/28 10:57:16;;;;;;;17.90;3.27;;;19.50;76.60;;;;;;5036173;28;20174;-71
2022/11/28 11:00:09;;;;;;;13.33;3.00;;;19.40;76.80;;;;;;5047190;28;20206;-72
2022/11/28 11:02:49;;;;;;;10.43;2.50;;;19.50;76.90;;;;;;5052233;28;20271;-71
2022/11/28 11:05:24;;;;;;;13.60;2.53;;;19.40;77.10;;;;;;5040148;28;20541;-71
2022/11/28 11:07:58;;;;;;;20.57;3.23;;;19.40;77.10;;;;;;5036472;28;20532;-71
2022/11/28 11:10:45;;;;;;;9.90;2.40;;;19.30;77.50;;;;;;5042347;28;20190;-71
2022/11/28 11:13:31;;;;;;;10.73;2.10;;;19.30;77.80;;;;;;5051127;28;20650;-71
2022/11/28 11:16:03;;;;;;;9.73;2.93;;;19.30;78.00;;;;;;5049718;28;20238;-71
2022/11/28 11:18:31;;;;;;;14.43;3.37;;;19.30;78.30;;;;;;5042489;28;20187;-71
2022/11/28 11:21:18;;;;;;;10.50;2.63;;;19.30;78.30;;;;;;5041376;28;20291;-72
2022/11/28 11:23:47;;;;;;;11.63;2.67;;;19.30;78.10;;;;;;5039272;28;20180;-71
2022/11/28 11:26:33;;;;;;;10.57;2.67;;;19.30;78.20;;;;;;5039428;28;20183;-71
2022/11/28 11:29:03;;;;;;;9.20;2.70;;;19.40;77.90;;;;;;5050696;28;20198;-71
2022/11/28 11:31:40;;;;;;;13.20;2.47;;;19.50;78.10;;;;;;5038463;28;20185;-71
2022/11/28 11:34:19;;;;;;;14.13;3.10;;;19.40;78.00;;;;;;5044618;28;20170;-71
2022/11/28 11:36:46;;;;;;;8.70;2.47;;;19.40;78.20;;;;;;5038394;28;20207;-71
2022/11/28 11:39:14;;;;;;;11.67;2.70;;;19.30;78.30;;;;;;5045649;28;20512;-71
2022/11/28 11:41:47;;;;;;;9.90;2.77;;;19.30;78.50;;;;;;5046056;28;20191;-70
2022/11/28 11:44:14;;;;;;;14.60;3.43;;;19.20;78.60;;;;;;5046760;28;20212;-71
2022/11/28 11:46:56;;;;;;;9.70;3.30;;;19.20;79.00;;;;;;5042427;28;20254;-70
2022/11/28 11:49:39;;;;;;;13.53;3.00;;;19.20;79.20;;;;;;5045091;28;20227;-71
2022/11/28 11:52:12;;;;;;;10.77;2.47;;;19.20;79.00;;;;;;5048870;28;20576;-70
2022/11/28 11:54:40;;;;;;;12.83;2.70;;;19.10;79.40;;;;;;5034692;28;20264;-70
2022/11/28 11:57:21;;;;;;;11.97;2.90;;;19.10;79.50;;;;;;5037486;28;20169;-70
2022/11/28 12:00:02;;;;;;;12.57;2.90;;;19.10;79.70;;;;;;5044107;28;20211;-70
2022/11/28 12:02:56;;;;;;;13.90;2.80;;;19.00;79.80;;;;;;5037113;28;20643;-71
2022/11/28 12:05:30;;;;;;;11.87;3.33;;;19.10;80.00;;;;;;5050586;28;20175;-70
2022/11/28 12:08:34;;;;;;;12.77;3.53;;;19.10;80.00;;;;;;5038108;28;20176;-71
2022/11/28 12:11:18;;;;;;;12.53;2.73;;;19.00;80.10;;;;;;5039161;28;20184;-70
2022/11/28 12:13:45;;;;;;;12.67;2.83;;;19.00;80.20;;;;;;5035784;28;20247;-71
2022/11/28 12:16:39;;;;;;;12.73;3.03;;;19.00;80.50;;;;;;5035040;28;20267;-71
2022/11/28 12:19:36;;;;;;;16.23;3.30;;;18.90;80.40;;;;;;5036046;28;20184;-71
2022/11/28 12:22:12;;;;;;;8.10;2.93;;;18.80;80.60;;;;;;5039508;28;20226;-71
2022/11/28 12:24:55;;;;;;;12.20;2.83;;;18.80;80.90;;;;;;5040649;28;20225;-71
2022/11/28 12:27:31;;;;;;;12.97;3.33;;;18.80;81.20;;;;;;5052792;28;20195;-71
2022/11/28 12:30:16;;;;;;;11.87;3.30;;;18.80;80.90;;;;;;5044016;28;20176;-72
2022/11/28 12:32:57;;;;;;;13.23;2.73;;;18.80;81.40;;;;;;5038285;28;20181;-70
2022/11/28 12:35:38;;;;;;;13.00;2.80;;;18.80;81.30;;;;;;5037891;28;20263;-70
2022/11/28 12:38:13;;;;;;;13.03;2.97;;;18.80;81.60;;;;;;5038767;28;20176;-71
2022/11/28 12:41:16;;;;;;;11.93;3.50;;;18.80;81.60;;;;;;5037677;28;20191;-71
2022/11/28 12:44:01;;;;;;;8.37;2.67;;;18.80;81.70;;;;;;5034594;28;20207;-70
2022/11/28 12:46:38;;;;;;;12.20;3.03;;;18.80;81.60;;;;;;5046294;28;20220;-71
2022/11/28 12:49:16;;;;;;;13.33;3.60;;;18.80;81.90;;;;;;5034861;28;20180;-70
2022/11/28 12:52:02;;;;;;;13.97;3.40;;;18.80;81.70;;;;;;5044110;28;20188;-70
2022/11/28 12:54:32;;;;;;;14.73;2.70;;;18.80;82.00;;;;;;5035571;28;20180;-70
2022/11/28 12:57:16;;;;;;;9.03;3.10;;;18.80;82.30;;;;;;5033832;28;20181;-70
2022/11/28 13:00:02;;;;;;;14.30;3.37;;;18.80;82.20;;;;;;5034354;28;20282;-71
2022/11/28 13:02:53;;;;;;;16.97;3.40;;;18.80;81.90;;;;;;5040751;28;20226;-71
2022/11/28 13:05:39;;;;;;;20.83;3.37;;;18.80;82.10;;;;;;5035377;28;20184;-71
2022/11/28 13:08:24;;;;;;;8.77;3.00;;;18.80;82.50;;;;;;5034100;28;20263;-70
2022/11/28 13:11:26;;;;;;;9.40;2.80;;;18.80;82.20;;;;;;5045757;28;20171;-70
2022/11/28 13:14:09;;;;;;;13.93;3.20;;;18.80;82.10;;;;;;5038432;28;20172;-70
2022/11/28 13:16:53;;;;;;;16.97;3.43;;;18.90;82.20;;;;;;5033914;28;20271;-71
2022/11/28 13:19:40;;;;;;;14.30;3.10;;;18.90;82.40;;;;;;5040524;28;20168;-71